sensor_id;sensor_type;location;lat;lon;timestamp;temperature;humidity
18721;DHT22;9489;50.948;3.114;2022-09-12T00:00:26;17.00;99.90
18721;DHT22;9489;50.948;3.114;2022-09-12T00:02:53;17.00;99.90
18721;DHT22;9489;50.948;3.114;2022-09-12T00:05:19;17.00;99.90
18721;DHT22;9489;50.948;3.114;2022-09-12T00:07:44;17.00;99.90
18721;DHT22;9489;50.948;3.114;2022-09-12T00:10:10;17.00;99.90
18721;DHT22;9489;50.948;3.114;2022-09-12T00:12:36;17.00;99.90
18721;DHT22;9489;50.948;3.114;2022-09-12T00:15:02;16.90;99.90
18721;DHT22;9489;50.948;3.114;2022-09-12T00:17:27;16.90;99.90
18721;DHT22;9489;50.948;3.114;2022-09-12T00:19:53;17.00;99.90
18721;DHT22;9489;50.948;3.114;2022-09-12T00:22:20;16.90;99.90
18721;DHT22;9489;50.948;3.114;2022-09-12T00:24:46;16.90;99.90
18721;DHT22;9489;50.948;3.114;2022-09-12T00:27:11;16.90;99.90
18721;DHT22;9489;50.948;3.114;2022-09-12T00:29:37;17.00;99.90
18721;DHT22;9489;50.948;3.114;2022-09-12T00:32:03;17.00;99.90
18721;DHT22;9489;50.948;3.114;2022-09-12T00:34:29;17.00;99.90
18721;DHT22;9489;50.948;3.114;2022-09-12T00:36:54;17.00;99.90
18721;DHT22;9489;50.948;3.114;2022-09-12T00:39:20;16.90;99.90
18721;DHT22;9489;50.948;3.114;2022-09-12T00:41:45;16.80;99.90
18721;DHT22;9489;50.948;3.114;2022-09-12T00:46:47;16.70;99.90
18721;DHT22;9489;50.948;3.114;2022-09-12T00:51:52;16.80;99.90
18721;DHT22;9489;50.948;3.114;2022-09-12T00:54:23;16.70;99.90
18721;DHT22;9489;50.948;3.114;2022-09-12T00:56:52;16.70;99.90
18721;DHT22;9489;50.948;3.114;2022-09-12T00:59:23;16.60;99.90
18721;DHT22;9489;50.948;3.114;2022-09-12T01:01:50;16.60;99.90
18721;DHT22;9489;50.948;3.114;2022-09-12T01:04:19;16.60;99.90
18721;DHT22;9489;50.948;3.114;2022-09-12T01:06:46;16.60;99.90
18721;DHT22;9489;50.948;3.114;2022-09-12T01:09:18;16.60;99.90
18721;DHT22;9489;50.948;3.114;2022-09-12T01:11:45;16.50;99.90
18721;DHT22;9489;50.948;3.114;2022-09-12T01:14:14;16.50;99.90
18721;DHT22;9489;50.948;3.114;2022-09-12T01:16:40;16.50;99.90
18721;DHT22;9489;50.948;3.114;2022-09-12T01:19:11;16.50;99.90
18721;DHT22;9489;50.948;3.114;2022-09-12T01:30:03;16.30;99.90
18721;DHT22;9489;50.948;3.114;2022-09-12T01:35:46;16.30;99.90
18721;DHT22;9489;50.948;3.114;2022-09-12T01:38:24;16.20;99.90
18721;DHT22;9489;50.948;3.114;2022-09-12T01:41:06;16.30;99.90
18721;DHT22;9489;50.948;3.114;2022-09-12T01:46:15;16.30;99.90
18721;DHT22;9489;50.948;3.114;2022-09-12T01:51:33;16.20;99.90
18721;DHT22;9489;50.948;3.114;2022-09-12T01:54:06;16.10;99.90
18721;DHT22;9489;50.948;3.114;2022-09-12T01:56:37;16.10;99.90
18721;DHT22;9489;50.948;3.114;2022-09-12T01:59:14;16.10;99.90
18721;DHT22;9489;50.948;3.114;2022-09-12T02:01:49;16.10;99.90
18721;DHT22;9489;50.948;3.114;2022-09-12T02:04:24;16.10;99.90
18721;DHT22;9489;50.948;3.114;2022-09-12T02:06:57;16.00;99.90
18721;DHT22;9489;50.948;3.114;2022-09-12T02:09:36;16.00;99.90
18721;DHT22;9489;50.948;3.114;2022-09-12T02:12:05;16.00;99.90
18721;DHT22;9489;50.948;3.114;2022-09-12T02:14:41;16.00;99.90
18721;DHT22;9489;50.948;3.114;2022-09-12T02:17:12;15.90;99.90
18721;DHT22;9489;50.948;3.114;2022-09-12T02:19:43;16.00;99.90
18721;DHT22;9489;50.948;3.114;2022-09-12T02:22:14;16.00;99.90
18721;DHT22;9489;50.948;3.114;2022-09-12T02:24:45;15.90;99.90
18721;DHT22;9489;50.948;3.114;2022-09-12T02:27:34;15.90;99.90
18721;DHT22;9489;50.948;3.114;2022-09-12T02:30:03;15.90;99.90
18721;DHT22;9489;50.948;3.114;2022-09-12T02:32:36;15.90;99.90
18721;DHT22;9489;50.948;3.114;2022-09-12T02:35:21;15.80;99.90
18721;DHT22;9489;50.948;3.114;2022-09-12T02:40:32;15.80;99.90
18721;DHT22;9489;50.948;3.114;2022-09-12T02:42:59;15.80;99.90
18721;DHT22;9489;50.948;3.114;2022-09-12T02:45:25;15.70;99.90
18721;DHT22;9489;50.948;3.114;2022-09-12T02:47:57;15.70;99.90
18721;DHT22;9489;50.948;3.114;2022-09-12T02:50:24;15.70;99.90
18721;DHT22;9489;50.948;3.114;2022-09-12T02:52:51;15.70;99.90
18721;DHT22;9489;50.948;3.114;2022-09-12T02:55:19;15.70;99.90
18721;DHT22;9489;50.948;3.114;2022-09-12T02:57:44;15.60;99.90
18721;DHT22;9489;50.948;3.114;2022-09-12T03:00:11;15.60;99.90
18721;DHT22;9489;50.948;3.114;2022-09-12T03:02:51;15.60;99.90
18721;DHT22;9489;50.948;3.114;2022-09-12T03:10:32;15.40;99.90
18721;DHT22;9489;50.948;3.114;2022-09-12T03:13:14;15.40;99.90
18721;DHT22;9489;50.948;3.114;2022-09-12T03:21:44;15.30;99.90
18721;DHT22;9489;50.948;3.114;2022-09-12T03:24:19;15.30;99.90
18721;DHT22;9489;50.948;3.114;2022-09-12T03:26:52;15.30;99.90
18721;DHT22;9489;50.948;3.114;2022-09-12T03:29:19;15.30;99.90
18721;DHT22;9489;50.948;3.114;2022-09-12T03:31:53;15.30;99.90
18721;DHT22;9489;50.948;3.114;2022-09-12T03:34:22;15.20;99.90
18721;DHT22;9489;50.948;3.114;2022-09-12T03:36:48;15.30;99.90
18721;DHT22;9489;50.948;3.114;2022-09-12T03:39:14;15.20;99.90
18721;DHT22;9489;50.948;3.114;2022-09-12T03:41:40;15.20;99.90
18721;DHT22;9489;50.948;3.114;2022-09-12T03:44:06;15.20;99.90
18721;DHT22;9489;50.948;3.114;2022-09-12T03:46:31;15.20;99.90
18721;DHT22;9489;50.948;3.114;2022-09-12T03:48:57;15.20;99.90
18721;DHT22;9489;50.948;3.114;2022-09-12T03:51:23;15.20;99.90
18721;DHT22;9489;50.948;3.114;2022-09-12T03:53:48;15.10;99.90
18721;DHT22;9489;50.948;3.114;2022-09-12T03:56:14;15.10;99.90
18721;DHT22;9489;50.948;3.114;2022-09-12T03:58:40;15.10;99.90
18721;DHT22;9489;50.948;3.114;2022-09-12T04:01:11;15.10;99.90
18721;DHT22;9489;50.948;3.114;2022-09-12T04:03:41;15.00;99.90
18721;DHT22;9489;50.948;3.114;2022-09-12T04:06:08;15.00;99.90
18721;DHT22;9489;50.948;3.114;2022-09-12T04:08:35;15.00;99.90
18721;DHT22;9489;50.948;3.114;2022-09-12T04:11:06;14.90;99.90
18721;DHT22;9489;50.948;3.114;2022-09-12T04:13:33;15.00;99.90
18721;DHT22;9489;50.948;3.114;2022-09-12T04:15:59;14.90;99.90
18721;DHT22;9489;50.948;3.114;2022-09-12T04:18:26;15.00;99.90
18721;DHT22;9489;50.948;3.114;2022-09-12T04:20:52;14.90;99.90
18721;DHT22;9489;50.948;3.114;2022-09-12T04:23:17;14.90;99.90
18721;DHT22;9489;50.948;3.114;2022-09-12T04:25:44;14.80;99.90
18721;DHT22;9489;50.948;3.114;2022-09-12T04:28:09;14.80;99.90
18721;DHT22;9489;50.948;3.114;2022-09-12T04:30:35;14.80;99.90
18721;DHT22;9489;50.948;3.114;2022-09-12T04:33:00;14.80;99.90
18721;DHT22;9489;50.948;3.114;2022-09-12T04:35:26;14.90;99.90
18721;DHT22;9489;50.948;3.114;2022-09-12T04:37:52;14.80;99.90
18721;DHT22;9489;50.948;3.114;2022-09-12T04:40:18;14.80;99.90
18721;DHT22;9489;50.948;3.114;2022-09-12T04:42:44;14.80;99.90
18721;DHT22;9489;50.948;3.114;2022-09-12T04:45:10;14.80;99.90
18721;DHT22;9489;50.948;3.114;2022-09-12T04:47:35;14.80;99.90
18721;DHT22;9489;50.948;3.114;2022-09-12T04:50:01;14.80;99.90
18721;DHT22;9489;50.948;3.114;2022-09-12T04:52:27;14.80;99.90
18721;DHT22;9489;50.948;3.114;2022-09-12T04:54:52;14.70;99.90
18721;DHT22;9489;50.948;3.114;2022-09-12T04:57:18;14.70;99.90
18721;DHT22;9489;50.948;3.114;2022-09-12T04:59:44;14.70;99.90
18721;DHT22;9489;50.948;3.114;2022-09-12T05:02:09;14.70;99.90
18721;DHT22;9489;50.948;3.114;2022-09-12T05:04:35;14.70;99.90
18721;DHT22;9489;50.948;3.114;2022-09-12T05:07:01;14.60;99.90
18721;DHT22;9489;50.948;3.114;2022-09-12T05:09:27;14.60;99.90
18721;DHT22;9489;50.948;3.114;2022-09-12T05:11:53;14.60;99.90
18721;DHT22;9489;50.948;3.114;2022-09-12T05:14:19;14.60;99.90
18721;DHT22;9489;50.948;3.114;2022-09-12T05:16:44;14.60;99.90
18721;DHT22;9489;50.948;3.114;2022-09-12T05:19:10;14.60;99.90
18721;DHT22;9489;50.948;3.114;2022-09-12T05:21:36;14.60;99.90
18721;DHT22;9489;50.948;3.114;2022-09-12T05:24:02;14.60;99.90
18721;DHT22;9489;50.948;3.114;2022-09-12T05:26:29;14.60;99.90
18721;DHT22;9489;50.948;3.114;2022-09-12T05:28:55;14.70;99.90
18721;DHT22;9489;50.948;3.114;2022-09-12T05:31:27;14.70;99.90
18721;DHT22;9489;50.948;3.114;2022-09-12T05:33:54;14.60;99.90
18721;DHT22;9489;50.948;3.114;2022-09-12T05:36:23;14.60;99.90
18721;DHT22;9489;50.948;3.114;2022-09-12T05:38:49;14.60;99.90
18721;DHT22;9489;50.948;3.114;2022-09-12T05:41:19;14.60;99.90
18721;DHT22;9489;50.948;3.114;2022-09-12T05:43:50;14.60;99.90
18721;DHT22;9489;50.948;3.114;2022-09-12T05:46:18;14.60;99.90
18721;DHT22;9489;50.948;3.114;2022-09-12T05:48:45;14.70;99.90
18721;DHT22;9489;50.948;3.114;2022-09-12T05:51:14;14.70;99.90
18721;DHT22;9489;50.948;3.114;2022-09-12T05:53:44;14.60;99.90
18721;DHT22;9489;50.948;3.114;2022-09-12T05:56:12;14.60;99.90
18721;DHT22;9489;50.948;3.114;2022-09-12T05:58:41;14.70;99.90
18721;DHT22;9489;50.948;3.114;2022-09-12T06:01:09;14.90;99.90
18721;DHT22;9489;50.948;3.114;2022-09-12T06:03:47;15.10;99.90
18721;DHT22;9489;50.948;3.114;2022-09-12T06:06:14;15.30;99.90
18721;DHT22;9489;50.948;3.114;2022-09-12T06:08:42;15.70;99.90
18721;DHT22;9489;50.948;3.114;2022-09-12T06:11:11;16.00;99.90
18721;DHT22;9489;50.948;3.114;2022-09-12T06:13:38;16.00;99.90
18721;DHT22;9489;50.948;3.114;2022-09-12T06:16:17;16.20;99.90
18721;DHT22;9489;50.948;3.114;2022-09-12T06:18:51;16.10;99.90
18721;DHT22;9489;50.948;3.114;2022-09-12T06:21:18;16.00;99.90
18721;DHT22;9489;50.948;3.114;2022-09-12T06:23:45;15.90;99.90
18721;DHT22;9489;50.948;3.114;2022-09-12T06:26:13;15.80;99.90
18721;DHT22;9489;50.948;3.114;2022-09-12T06:28:41;15.80;99.90
18721;DHT22;9489;50.948;3.114;2022-09-12T06:31:09;15.90;99.90
18721;DHT22;9489;50.948;3.114;2022-09-12T06:33:38;16.00;99.90
18721;DHT22;9489;50.948;3.114;2022-09-12T06:36:09;16.00;99.90
18721;DHT22;9489;50.948;3.114;2022-09-12T06:38:35;16.00;99.90
18721;DHT22;9489;50.948;3.114;2022-09-12T06:41:06;16.10;99.90
18721;DHT22;9489;50.948;3.114;2022-09-12T06:43:32;16.50;99.90
18721;DHT22;9489;50.948;3.114;2022-09-12T06:45:59;16.80;99.90
18721;DHT22;9489;50.948;3.114;2022-09-12T06:48:25;17.10;99.90
18721;DHT22;9489;50.948;3.114;2022-09-12T06:51:05;17.30;99.90
18721;DHT22;9489;50.948;3.114;2022-09-12T06:53:34;17.50;99.90
18721;DHT22;9489;50.948;3.114;2022-09-12T06:56:33;17.40;99.90
18721;DHT22;9489;50.948;3.114;2022-09-12T06:58:59;17.50;99.90
18721;DHT22;9489;50.948;3.114;2022-09-12T07:01:29;17.40;99.90
18721;DHT22;9489;50.948;3.114;2022-09-12T07:04:00;17.20;99.90
18721;DHT22;9489;50.948;3.114;2022-09-12T07:06:28;17.20;99.90
18721;DHT22;9489;50.948;3.114;2022-09-12T07:09:00;17.30;99.90
18721;DHT22;9489;50.948;3.114;2022-09-12T07:11:28;17.30;99.90
18721;DHT22;9489;50.948;3.114;2022-09-12T07:13:57;17.20;99.90
18721;DHT22;9489;50.948;3.114;2022-09-12T07:16:23;17.10;99.90
18721;DHT22;9489;50.948;3.114;2022-09-12T07:18:55;17.00;99.90
18721;DHT22;9489;50.948;3.114;2022-09-12T07:21:21;16.90;99.90
18721;DHT22;9489;50.948;3.114;2022-09-12T07:23:47;17.00;99.90
18721;DHT22;9489;50.948;3.114;2022-09-12T07:26:14;17.40;99.90
18721;DHT22;9489;50.948;3.114;2022-09-12T07:28:40;17.70;99.90
18721;DHT22;9489;50.948;3.114;2022-09-12T07:31:12;17.90;99.90
18721;DHT22;9489;50.948;3.114;2022-09-12T07:33:39;18.20;99.90
18721;DHT22;9489;50.948;3.114;2022-09-12T07:36:13;18.60;99.90
18721;DHT22;9489;50.948;3.114;2022-09-12T07:38:39;19.00;99.90
18721;DHT22;9489;50.948;3.114;2022-09-12T07:41:16;19.50;99.90
18721;DHT22;9489;50.948;3.114;2022-09-12T07:43:42;19.90;99.90
18721;DHT22;9489;50.948;3.114;2022-09-12T07:46:09;20.10;99.90
18721;DHT22;9489;50.948;3.114;2022-09-12T07:48:35;20.30;99.90
18721;DHT22;9489;50.948;3.114;2022-09-12T07:51:03;20.50;99.90
18721;DHT22;9489;50.948;3.114;2022-09-12T07:53:34;20.60;99.90
18721;DHT22;9489;50.948;3.114;2022-09-12T07:56:02;20.70;99.90
18721;DHT22;9489;50.948;3.114;2022-09-12T07:58:29;21.10;99.90
18721;DHT22;9489;50.948;3.114;2022-09-12T08:01:06;21.40;99.90
18721;DHT22;9489;50.948;3.114;2022-09-12T08:03:34;21.90;99.90
18721;DHT22;9489;50.948;3.114;2022-09-12T08:06:08;22.30;99.90
18721;DHT22;9489;50.948;3.114;2022-09-12T08:08:34;22.70;99.90
18721;DHT22;9489;50.948;3.114;2022-09-12T08:11:02;23.00;99.90
18721;DHT22;9489;50.948;3.114;2022-09-12T08:13:29;23.10;99.90
18721;DHT22;9489;50.948;3.114;2022-09-12T08:15:59;23.50;99.90
18721;DHT22;9489;50.948;3.114;2022-09-12T08:18:27;23.90;99.90
18721;DHT22;9489;50.948;3.114;2022-09-12T08:21:16;24.20;99.90
18721;DHT22;9489;50.948;3.114;2022-09-12T08:23:42;24.40;99.90
18721;DHT22;9489;50.948;3.114;2022-09-12T08:26:09;24.60;99.90
18721;DHT22;9489;50.948;3.114;2022-09-12T08:28:35;25.40;99.90
18721;DHT22;9489;50.948;3.114;2022-09-12T08:31:07;25.90;99.90
18721;DHT22;9489;50.948;3.114;2022-09-12T08:33:33;26.40;99.90
18721;DHT22;9489;50.948;3.114;2022-09-12T08:36:06;26.70;99.90
18721;DHT22;9489;50.948;3.114;2022-09-12T08:38:33;27.00;99.90
18721;DHT22;9489;50.948;3.114;2022-09-12T08:41:25;27.10;99.90
18721;DHT22;9489;50.948;3.114;2022-09-12T08:49:33;27.00;99.90
18721;DHT22;9489;50.948;3.114;2022-09-12T08:52:13;26.10;99.90
18721;DHT22;9489;50.948;3.114;2022-09-12T08:54:42;26.10;99.90
18721;DHT22;9489;50.948;3.114;2022-09-12T08:57:10;26.20;99.90
18721;DHT22;9489;50.948;3.114;2022-09-12T08:59:38;26.30;99.90
18721;DHT22;9489;50.948;3.114;2022-09-12T09:02:37;26.90;99.90
18721;DHT22;9489;50.948;3.114;2022-09-12T09:10:46;27.30;99.90
18721;DHT22;9489;50.948;3.114;2022-09-12T09:16:32;28.50;99.90
18721;DHT22;9489;50.948;3.114;2022-09-12T09:19:02;27.70;99.90
18721;DHT22;9489;50.948;3.114;2022-09-12T09:21:34;27.20;99.90
18721;DHT22;9489;50.948;3.114;2022-09-12T09:24:12;27.30;99.90
18721;DHT22;9489;50.948;3.114;2022-09-12T09:26:58;27.70;99.90
18721;DHT22;9489;50.948;3.114;2022-09-12T09:29:46;28.40;99.90
18721;DHT22;9489;50.948;3.114;2022-09-12T09:32:35;28.70;99.90
18721;DHT22;9489;50.948;3.114;2022-09-12T09:35:19;28.70;99.90
18721;DHT22;9489;50.948;3.114;2022-09-12T09:37:54;28.80;99.90
18721;DHT22;9489;50.948;3.114;2022-09-12T09:45:26;28.90;99.90
18721;DHT22;9489;50.948;3.114;2022-09-12T09:47:58;29.30;99.90
18721;DHT22;9489;50.948;3.114;2022-09-12T09:50:26;29.90;99.90
18721;DHT22;9489;50.948;3.114;2022-09-12T09:52:53;29.90;99.90
18721;DHT22;9489;50.948;3.114;2022-09-12T09:55:24;29.40;99.90
18721;DHT22;9489;50.948;3.114;2022-09-12T09:57:52;29.50;99.90
18721;DHT22;9489;50.948;3.114;2022-09-12T10:05:53;30.30;99.90
18721;DHT22;9489;50.948;3.114;2022-09-12T10:08:28;30.70;99.90
18721;DHT22;9489;50.948;3.114;2022-09-12T10:13:35;30.50;99.90
18721;DHT22;9489;50.948;3.114;2022-09-12T10:16:05;31.00;99.90
18721;DHT22;9489;50.948;3.114;2022-09-12T10:18:41;31.50;99.90
18721;DHT22;9489;50.948;3.114;2022-09-12T10:21:33;31.30;99.90
18721;DHT22;9489;50.948;3.114;2022-09-12T10:24:16;30.30;99.90
18721;DHT22;9489;50.948;3.114;2022-09-12T10:26:48;31.00;99.90
18721;DHT22;9489;50.948;3.114;2022-09-12T10:29:23;31.60;99.90
18721;DHT22;9489;50.948;3.114;2022-09-12T10:31:52;31.70;99.90
18721;DHT22;9489;50.948;3.114;2022-09-12T10:36:53;32.30;99.90
18721;DHT22;9489;50.948;3.114;2022-09-12T10:39:20;32.40;99.70
18721;DHT22;9489;50.948;3.114;2022-09-12T10:41:46;32.30;99.30
18721;DHT22;9489;50.948;3.114;2022-09-12T10:44:18;31.80;99.70
18721;DHT22;9489;50.948;3.114;2022-09-12T10:46:48;31.30;99.90
18721;DHT22;9489;50.948;3.114;2022-09-12T10:49:24;31.60;99.70
18721;DHT22;9489;50.948;3.114;2022-09-12T10:51:51;30.90;99.90
18721;DHT22;9489;50.948;3.114;2022-09-12T10:54:20;30.80;99.90
18721;DHT22;9489;50.948;3.114;2022-09-12T11:00:07;32.20;98.60
18721;DHT22;9489;50.948;3.114;2022-09-12T11:05:44;32.50;97.10
18721;DHT22;9489;50.948;3.114;2022-09-12T11:08:25;32.20;97.00
18721;DHT22;9489;50.948;3.114;2022-09-12T11:11:03;32.10;97.00
18721;DHT22;9489;50.948;3.114;2022-09-12T11:43:06;32.70;94.30
18721;DHT22;9489;50.948;3.114;2022-09-12T11:45:44;33.20;93.90
18721;DHT22;9489;50.948;3.114;2022-09-12T11:48:16;33.20;94.10
18721;DHT22;9489;50.948;3.114;2022-09-12T11:50:42;33.90;93.60
18721;DHT22;9489;50.948;3.114;2022-09-12T11:53:18;34.70;92.30
18721;DHT22;9489;50.948;3.114;2022-09-12T11:56:18;34.30;92.20
18721;DHT22;9489;50.948;3.114;2022-09-12T11:58:50;33.40;92.10
18721;DHT22;9489;50.948;3.114;2022-09-12T12:01:38;32.70;93.10
18721;DHT22;9489;50.948;3.114;2022-09-12T12:04:10;33.70;92.10
18721;DHT22;9489;50.948;3.114;2022-09-12T12:06:55;34.00;91.70
18721;DHT22;9489;50.948;3.114;2022-09-12T12:09:22;34.30;91.50
18721;DHT22;9489;50.948;3.114;2022-09-12T12:11:51;34.80;91.10
18721;DHT22;9489;50.948;3.114;2022-09-12T12:16:57;33.80;91.10
18721;DHT22;9489;50.948;3.114;2022-09-12T12:19:33;33.40;91.50
18721;DHT22;9489;50.948;3.114;2022-09-12T12:38:01;32.20;92.40
18721;DHT22;9489;50.948;3.114;2022-09-12T12:40:28;31.50;92.80
18721;DHT22;9489;50.948;3.114;2022-09-12T12:43:00;31.40;93.20
18721;DHT22;9489;50.948;3.114;2022-09-12T12:48:09;31.90;93.10
18721;DHT22;9489;50.948;3.114;2022-09-12T12:50:35;32.60;92.00
18721;DHT22;9489;50.948;3.114;2022-09-12T12:53:13;32.80;92.00
18721;DHT22;9489;50.948;3.114;2022-09-12T12:58:26;33.00;91.80
18721;DHT22;9489;50.948;3.114;2022-09-12T13:03:40;33.60;90.80
18721;DHT22;9489;50.948;3.114;2022-09-12T13:06:37;33.60;90.80
18721;DHT22;9489;50.948;3.114;2022-09-12T13:11:36;33.80;90.90
18721;DHT22;9489;50.948;3.114;2022-09-12T13:14:32;32.70;91.40
18721;DHT22;9489;50.948;3.114;2022-09-12T13:17:00;33.50;91.60
18721;DHT22;9489;50.948;3.114;2022-09-12T13:19:29;34.40;90.80
18721;DHT22;9489;50.948;3.114;2022-09-12T13:22:07;34.30;90.60
18721;DHT22;9489;50.948;3.114;2022-09-12T13:24:44;35.10;89.10
18721;DHT22;9489;50.948;3.114;2022-09-12T13:27:21;34.40;89.80
18721;DHT22;9489;50.948;3.114;2022-09-12T13:29:47;34.30;89.50
18721;DHT22;9489;50.948;3.114;2022-09-12T13:32:13;34.20;89.70
18721;DHT22;9489;50.948;3.114;2022-09-12T13:37:41;34.00;90.00
18721;DHT22;9489;50.948;3.114;2022-09-12T13:43:13;34.00;89.20
18721;DHT22;9489;50.948;3.114;2022-09-12T13:45:40;33.30;90.60
18721;DHT22;9489;50.948;3.114;2022-09-12T13:48:13;33.00;90.70
18721;DHT22;9489;50.948;3.114;2022-09-12T13:50:56;33.40;90.40
18721;DHT22;9489;50.948;3.114;2022-09-12T13:53:29;33.80;90.20
18721;DHT22;9489;50.948;3.114;2022-09-12T13:55:58;33.30;90.90
18721;DHT22;9489;50.948;3.114;2022-09-12T13:58:33;34.10;90.20
18721;DHT22;9489;50.948;3.114;2022-09-12T14:01:13;34.10;89.90
18721;DHT22;9489;50.948;3.114;2022-09-12T14:06:24;31.60;91.90
18721;DHT22;9489;50.948;3.114;2022-09-12T14:08:52;32.10;91.30
18721;DHT22;9489;50.948;3.114;2022-09-12T14:11:26;32.00;91.80
18721;DHT22;9489;50.948;3.114;2022-09-12T14:13:53;33.00;90.70
18721;DHT22;9489;50.948;3.114;2022-09-12T14:16:20;33.70;89.70
18721;DHT22;9489;50.948;3.114;2022-09-12T14:18:48;34.10;89.50
18721;DHT22;9489;50.948;3.114;2022-09-12T14:21:35;33.90;89.30
18721;DHT22;9489;50.948;3.114;2022-09-12T14:24:04;33.60;89.80
18721;DHT22;9489;50.948;3.114;2022-09-12T14:26:36;33.20;90.20
18721;DHT22;9489;50.948;3.114;2022-09-12T14:29:06;32.70;90.80
18721;DHT22;9489;50.948;3.114;2022-09-12T14:31:37;32.20;91.30
18721;DHT22;9489;50.948;3.114;2022-09-12T14:34:13;31.20;92.20
18721;DHT22;9489;50.948;3.114;2022-09-12T14:36:46;31.30;92.50
18721;DHT22;9489;50.948;3.114;2022-09-12T14:39:32;32.20;91.80
18721;DHT22;9489;50.948;3.114;2022-09-12T14:42:13;32.40;90.90
18721;DHT22;9489;50.948;3.114;2022-09-12T14:44:48;32.30;90.90
18721;DHT22;9489;50.948;3.114;2022-09-12T14:47:22;31.80;91.30
18721;DHT22;9489;50.948;3.114;2022-09-12T14:49:49;31.10;91.90
18721;DHT22;9489;50.948;3.114;2022-09-12T14:52:28;30.20;92.80
18721;DHT22;9489;50.948;3.114;2022-09-12T14:54:59;29.60;93.90
18721;DHT22;9489;50.948;3.114;2022-09-12T14:57:37;29.30;93.60
18721;DHT22;9489;50.948;3.114;2022-09-12T15:02:40;29.30;94.30
18721;DHT22;9489;50.948;3.114;2022-09-12T15:07:53;28.10;96.40
18721;DHT22;9489;50.948;3.114;2022-09-12T15:12:47;27.60;97.50
18721;DHT22;9489;50.948;3.114;2022-09-12T15:15:19;27.90;97.50
18721;DHT22;9489;50.948;3.114;2022-09-12T15:17:45;28.00;97.40
18721;DHT22;9489;50.948;3.114;2022-09-12T15:20:12;28.00;97.50
18721;DHT22;9489;50.948;3.114;2022-09-12T15:22:38;27.60;97.90
18721;DHT22;9489;50.948;3.114;2022-09-12T15:25:05;27.40;98.70
18721;DHT22;9489;50.948;3.114;2022-09-12T15:27:31;27.70;98.20
18721;DHT22;9489;50.948;3.114;2022-09-12T15:29:57;27.90;98.00
18721;DHT22;9489;50.948;3.114;2022-09-12T15:32:28;27.80;98.30
18721;DHT22;9489;50.948;3.114;2022-09-12T15:34:54;28.00;98.50
18721;DHT22;9489;50.948;3.114;2022-09-12T15:37:22;28.10;98.30
18721;DHT22;9489;50.948;3.114;2022-09-12T15:39:49;28.10;97.40
18721;DHT22;9489;50.948;3.114;2022-09-12T15:42:15;27.90;97.70
18721;DHT22;9489;50.948;3.114;2022-09-12T15:44:42;27.90;97.60
18721;DHT22;9489;50.948;3.114;2022-09-12T15:47:13;27.80;97.70
18721;DHT22;9489;50.948;3.114;2022-09-12T15:49:40;27.60;97.70
18721;DHT22;9489;50.948;3.114;2022-09-12T15:52:06;27.60;98.10
18721;DHT22;9489;50.948;3.114;2022-09-12T15:54:32;27.50;98.10
18721;DHT22;9489;50.948;3.114;2022-09-12T15:56:58;27.40;98.40
18721;DHT22;9489;50.948;3.114;2022-09-12T15:59:23;27.40;98.30
18721;DHT22;9489;50.948;3.114;2022-09-12T16:01:49;27.30;98.50
18721;DHT22;9489;50.948;3.114;2022-09-12T16:04:20;27.40;98.40
18721;DHT22;9489;50.948;3.114;2022-09-12T16:06:46;27.50;98.20
18721;DHT22;9489;50.948;3.114;2022-09-12T16:09:12;27.40;98.30
18721;DHT22;9489;50.948;3.114;2022-09-12T16:11:38;27.20;98.30
18721;DHT22;9489;50.948;3.114;2022-09-12T16:14:04;27.00;98.70
18721;DHT22;9489;50.948;3.114;2022-09-12T16:16:30;27.00;98.90
18721;DHT22;9489;50.948;3.114;2022-09-12T16:18:56;26.80;99.00
18721;DHT22;9489;50.948;3.114;2022-09-12T16:21:22;26.60;99.50
18721;DHT22;9489;50.948;3.114;2022-09-12T16:23:47;26.50;99.70
18721;DHT22;9489;50.948;3.114;2022-09-12T16:26:13;26.50;99.90
18721;DHT22;9489;50.948;3.114;2022-09-12T16:28:39;26.50;99.70
18721;DHT22;9489;50.948;3.114;2022-09-12T16:31:06;26.40;99.80
18721;DHT22;9489;50.948;3.114;2022-09-12T16:33:32;26.30;99.90
18721;DHT22;9489;50.948;3.114;2022-09-12T16:36:06;26.30;99.90
18721;DHT22;9489;50.948;3.114;2022-09-12T16:38:32;26.20;99.90
18721;DHT22;9489;50.948;3.114;2022-09-12T16:41:04;26.20;99.90
18721;DHT22;9489;50.948;3.114;2022-09-12T16:43:31;26.10;99.90
18721;DHT22;9489;50.948;3.114;2022-09-12T16:48:30;26.10;99.90
18721;DHT22;9489;50.948;3.114;2022-09-12T16:50:57;26.00;99.90
18721;DHT22;9489;50.948;3.114;2022-09-12T16:53:23;26.00;99.90
18721;DHT22;9489;50.948;3.114;2022-09-12T16:55:49;25.90;99.90
18721;DHT22;9489;50.948;3.114;2022-09-12T16:58:15;25.80;99.90
18721;DHT22;9489;50.948;3.114;2022-09-12T17:00:41;25.80;99.90
18721;DHT22;9489;50.948;3.114;2022-09-12T17:03:08;25.70;99.90
18721;DHT22;9489;50.948;3.114;2022-09-12T17:05:33;25.60;99.90
18721;DHT22;9489;50.948;3.114;2022-09-12T17:07:59;25.50;99.90
18721;DHT22;9489;50.948;3.114;2022-09-12T17:10:25;25.40;99.90
18721;DHT22;9489;50.948;3.114;2022-09-12T17:12:51;25.40;99.90
18721;DHT22;9489;50.948;3.114;2022-09-12T17:15:17;25.30;99.90
18721;DHT22;9489;50.948;3.114;2022-09-12T17:17:42;25.30;99.90
18721;DHT22;9489;50.948;3.114;2022-09-12T17:20:08;25.30;99.90
18721;DHT22;9489;50.948;3.114;2022-09-12T17:22:34;25.30;99.90
18721;DHT22;9489;50.948;3.114;2022-09-12T17:24:59;25.30;99.90
18721;DHT22;9489;50.948;3.114;2022-09-12T17:27:25;25.20;99.90
18721;DHT22;9489;50.948;3.114;2022-09-12T17:29:50;25.20;99.90
18721;DHT22;9489;50.948;3.114;2022-09-12T17:32:16;25.10;99.90
18721;DHT22;9489;50.948;3.114;2022-09-12T17:34:42;25.10;99.90
18721;DHT22;9489;50.948;3.114;2022-09-12T17:37:07;25.20;99.90
18721;DHT22;9489;50.948;3.114;2022-09-12T17:39:33;25.10;99.90
18721;DHT22;9489;50.948;3.114;2022-09-12T17:41:59;25.00;99.90
18721;DHT22;9489;50.948;3.114;2022-09-12T17:44:25;25.10;99.90
18721;DHT22;9489;50.948;3.114;2022-09-12T17:46:54;25.10;99.90
18721;DHT22;9489;50.948;3.114;2022-09-12T17:49:20;25.20;99.90
18721;DHT22;9489;50.948;3.114;2022-09-12T17:51:46;25.20;99.90
18721;DHT22;9489;50.948;3.114;2022-09-12T17:54:17;25.20;99.90
18721;DHT22;9489;50.948;3.114;2022-09-12T17:56:45;25.20;99.90
18721;DHT22;9489;50.948;3.114;2022-09-12T17:59:15;25.10;99.90
18721;DHT22;9489;50.948;3.114;2022-09-12T18:01:41;25.20;99.90
18721;DHT22;9489;50.948;3.114;2022-09-12T18:04:25;25.10;99.90
18721;DHT22;9489;50.948;3.114;2022-09-12T18:06:52;25.10;99.90
18721;DHT22;9489;50.948;3.114;2022-09-12T18:09:20;25.00;99.90
18721;DHT22;9489;50.948;3.114;2022-09-12T18:11:47;24.90;99.90
18721;DHT22;9489;50.948;3.114;2022-09-12T18:14:14;24.70;99.90
18721;DHT22;9489;50.948;3.114;2022-09-12T18:16:41;24.60;99.90
18721;DHT22;9489;50.948;3.114;2022-09-12T18:19:07;24.50;99.90
18721;DHT22;9489;50.948;3.114;2022-09-12T18:21:32;24.40;99.90
18721;DHT22;9489;50.948;3.114;2022-09-12T18:23:58;24.30;99.90
18721;DHT22;9489;50.948;3.114;2022-09-12T18:26:26;24.30;99.90
18721;DHT22;9489;50.948;3.114;2022-09-12T18:28:52;24.20;99.90
18721;DHT22;9489;50.948;3.114;2022-09-12T18:31:20;24.20;99.90